Time;durP1;ratioP1;P1;durP2;ratioP2;P2;SDS_P1;SDS_P2;PMS_P1;PMS_P2;Temp;Humidity;BMP_temperature;BMP_pressure;BME280_temperature;BME280_humidity;BME280_pressure;Samples;Min_cycle;Max_cycle;Signal;HPM_P1;HPM_P2
2023/04/23 00:00:29;;;;;;;5.80;4.40;;;;;;;20.86;33.43;99452.08;104264;1252;59761;-60
2023/04/23 00:02:57;;;;;;;6.00;4.50;;;;;;;20.86;33.29;99450.89;104292;1260;72266;-60
2023/04/23 00:05:26;;;;;;;5.80;4.20;;;;;;;20.84;33.24;99454.38;104343;1254;69380;-60
2023/04/23 00:07:55;;;;;;;5.70;4.10;;;;;;;20.86;32.97;99455.64;104210;1260;72129;-61
2023/04/23 00:10:24;;;;;;;5.70;4.90;;;;;;;20.85;32.94;99458.20;104281;1270;59797;-60
2023/04/23 00:12:52;;;;;;;5.10;4.60;;;;;;;20.83;33.03;99457.13;104422;1252;59657;-61
2023/04/23 00:15:21;;;;;;;5.60;4.30;;;;;;;20.84;32.76;99456.59;104248;1260;72137;-60
2023/04/23 00:17:49;;;;;;;6.40;4.90;;;;;;;20.85;32.79;99460.93;104262;1270;69041;-60
2023/04/23 00:20:18;;;;;;;6.80;4.80;;;;;;;20.86;32.62;99460.12;104405;1273;73167;-61
2023/04/23 00:22:46;;;;;;;6.30;4.60;;;;;;;20.87;32.73;99461.67;104357;1257;59650;-64
2023/04/23 00:25:14;;;;;;;6.00;4.30;;;;;;;20.86;32.76;99462.63;104311;1256;60054;-60
2023/04/23 00:27:43;;;;;;;5.30;4.70;;;;;;;20.87;32.62;99464.65;104620;1251;72397;-60
2023/04/23 00:30:11;;;;;;;5.70;5.00;;;;;;;20.88;32.45;99464.04;104543;1254;69543;-60
2023/04/23 00:32:40;;;;;;;5.80;4.30;;;;;;;20.89;32.73;99465.16;104534;1256;71640;-61
2023/04/23 00:35:09;;;;;;;9.70;4.60;;;;;;;20.91;33.30;99467.98;104624;1251;60171;-61
2023/04/23 00:37:37;;;;;;;6.10;4.30;;;;;;;20.93;32.91;99465.38;104474;1260;60364;-61
2023/04/23 00:40:06;;;;;;;5.10;4.20;;;;;;;20.92;33.04;99464.58;104512;1257;72212;-61
2023/04/23 00:42:37;;;;;;;5.70;4.60;;;;;;;20.94;33.32;99467.26;104506;1257;68863;-61
2023/04/23 00:45:07;;;;;;;5.40;4.60;;;;;;;20.95;33.05;99466.61;104655;1251;71741;-61
2023/04/23 00:47:35;;;;;;;5.80;4.40;;;;;;;20.96;32.97;99466.88;104648;1260;59580;-61
2023/04/23 00:50:05;;;;;;;6.60;4.50;;;;;;;20.95;32.65;99469.27;104394;1252;60076;-61
2023/04/23 00:52:34;;;;;;;6.90;5.00;;;;;;;20.95;32.91;99469.10;104643;1254;72696;-61
2023/04/23 00:55:03;;;;;;;5.90;4.60;;;;;;;20.95;32.78;99469.15;104404;1263;70120;-62
2023/04/23 00:57:32;;;;;;;7.10;4.90;;;;;;;20.93;32.61;99473.05;104445;1254;72360;-61
2023/04/23 01:00:00;;;;;;;8.80;4.80;;;;;;;20.90;33.08;99474.54;104607;1254;60262;-61
2023/04/23 01:02:29;;;;;;;6.20;5.20;;;;;;;20.90;32.74;99474.34;104581;1251;60327;-62
2023/04/23 01:04:59;;;;;;;7.70;6.00;;;;;;;20.89;33.09;99471.08;104717;1251;73389;-62
2023/04/23 01:07:32;;;;;;;7.30;5.40;;;;;;;20.86;32.98;99470.05;104527;1266;69717;-61
2023/04/23 01:10:01;;;;;;;7.50;5.40;;;;;;;20.85;32.73;99469.86;104486;1257;72373;-61
2023/04/23 01:12:30;;;;;;;7.00;5.40;;;;;;;20.81;33.44;99467.48;104441;1251;59715;-61
2023/04/23 01:14:58;;;;;;;7.00;5.10;;;;;;;20.78;33.10;99467.55;104838;1251;59781;-61
2023/04/23 01:17:27;;;;;;;8.20;5.00;;;;;;;20.79;33.34;99470.52;104591;1266;72207;-60
2023/04/23 01:19:56;;;;;;;6.20;5.20;;;;;;;20.79;33.50;99469.86;104600;1251;68467;-62
2023/04/23 01:22:24;;;;;;;5.90;5.00;;;;;;;20.77;33.51;99472.27;104383;1254;73215;-61
2023/04/23 01:24:52;;;;;;;7.20;5.00;;;;;;;20.78;33.29;99473.43;104280;1250;59873;-61
2023/04/23 01:27:23;;;;;;;7.30;5.00;;;;;;;20.76;33.17;99474.85;104348;1263;59787;-60
2023/04/23 01:29:52;;;;;;;6.20;4.60;;;;;;;20.77;32.95;99474.98;104346;1270;74568;-60
2023/04/23 01:32:20;;;;;;;6.50;4.90;;;;;;;20.75;33.10;99471.73;104411;1263;69330;-61
2023/04/23 01:34:48;;;;;;;6.80;4.80;;;;;;;20.72;32.97;99473.80;104320;1257;72274;-60
2023/04/23 01:37:17;;;;;;;7.00;4.70;;;;;;;20.71;32.96;99474.98;104502;1257;60552;-61
2023/04/23 01:39:45;;;;;;;5.80;4.60;;;;;;;20.64;33.26;99475.20;104680;1251;60302;-61
2023/04/23 01:42:14;;;;;;;6.90;4.60;;;;;;;20.64;33.61;99479.30;104611;1272;73260;-61
2023/04/23 01:44:43;;;;;;;6.20;4.80;;;;;;;20.63;33.26;99475.50;104464;1266;68714;-61
2023/04/23 01:47:11;;;;;;;6.40;4.20;;;;;;;20.58;33.55;99475.85;104628;1267;72300;-61
2023/04/23 01:49:40;;;;;;;5.30;4.60;;;;;;;20.56;33.49;99477.27;104356;1267;60751;-61
2023/04/23 01:52:08;;;;;;;5.50;4.40;;;;;;;20.51;33.22;99476.66;104683;1267;61946;-61
2023/04/23 01:54:37;;;;;;;5.50;4.10;;;;;;;20.50;33.38;99476.06;104622;1250;74489;-61
2023/04/23 01:57:06;;;;;;;5.00;4.20;;;;;;;20.46;33.17;99478.56;104478;1263;69728;-61
2023/04/23 01:59:36;;;;;;;8.30;4.70;;;;;;;20.40;33.27;99478.33;104577;1253;72001;-61
2023/04/23 02:02:09;;;;;;;6.10;4.70;;;;;;;20.36;33.67;99474.97;104397;1260;62326;-62
2023/04/23 02:04:38;;;;;;;5.90;4.70;;;;;;;20.33;33.59;99475.75;104719;1252;60525;-60
2023/04/23 02:07:07;;;;;;;6.80;4.50;;;;;;;20.33;32.88;99479.31;104360;1256;73959;-60
2023/04/23 02:09:36;;;;;;;7.70;4.10;;;;;;;20.31;32.63;99476.44;104757;1251;70652;-61
2023/04/23 02:12:07;;;;;;;4.80;3.90;;;;;;;20.28;33.03;99478.67;104753;1250;72410;-61
2023/04/23 02:14:35;;;;;;;6.30;3.90;;;;;;;20.26;33.41;99475.27;104590;1251;60564;-61
2023/04/23 02:17:04;;;;;;;4.10;3.70;;;;;;;20.24;33.73;99473.11;104624;1249;60500;-61
2023/04/23 02:19:33;;;;;;;6.60;4.30;;;;;;;20.22;34.06;99474.70;104856;1253;72921;-60
2023/04/23 02:22:02;;;;;;;5.70;4.70;;;;;;;20.18;33.31;99474.66;104648;1267;68916;-61
2023/04/23 02:24:31;;;;;;;4.60;4.10;;;;;;;20.14;33.16;99478.02;104659;1250;71787;-61
2023/04/23 02:26:59;;;;;;;5.10;4.20;;;;;;;20.15;33.10;99479.91;104562;1272;60489;-61
2023/04/23 02:29:28;;;;;;;5.60;4.30;;;;;;;20.13;32.78;99478.55;104549;1266;60569;-61
2023/04/23 02:31:56;;;;;;;4.40;4.00;;;;;;;20.13;33.50;99479.92;104546;1254;73243;-62
2023/04/23 02:34:25;;;;;;;5.30;3.90;;;;;;;20.10;33.52;99479.46;104329;1266;68756;-61
2023/04/23 02:36:53;;;;;;;4.70;3.60;;;;;;;20.08;33.88;99484.09;104668;1266;72783;-61
2023/04/23 02:39:21;;;;;;;6.90;3.80;;;;;;;20.03;33.91;99483.23;104849;1254;60571;-62
2023/04/23 02:41:50;;;;;;;6.30;3.80;;;;;;;20.01;34.44;99482.74;104684;1263;60214;-62
2023/04/23 02:44:18;;;;;;;4.70;4.00;;;;;;;20.03;34.05;99486.50;104767;1250;74086;-62
2023/04/23 02:46:46;;;;;;;6.00;4.40;;;;;;;20.00;34.11;99488.69;104706;1254;68839;-61
2023/04/23 02:49:15;;;;;;;5.20;4.10;;;;;;;19.99;34.31;99492.14;104642;1251;73005;-62
2023/04/23 02:51:43;;;;;;;9.00;4.50;;;;;;;19.97;33.94;99494.48;104298;1251;60550;-62
2023/04/23 02:54:12;;;;;;;6.20;4.40;;;;;;;19.95;34.25;99492.49;104398;1261;59938;-61
2023/04/23 02:56:40;;;;;;;5.40;4.10;;;;;;;19.92;34.45;99492.91;104599;1254;73196;-62
2023/04/23 02:59:09;;;;;;;6.80;4.60;;;;;;;19.88;34.54;99497.36;104358;1253;69013;-61
2023/04/23 03:01:38;;;;;;;5.00;4.20;;;;;;;19.87;34.62;99497.80;104268;1252;72058;-61
2023/04/23 03:04:07;;;;;;;6.30;4.20;;;;;;;19.85;34.69;99498.32;104819;1251;60901;-61
2023/04/23 03:06:36;;;;;;;5.30;4.00;;;;;;;19.82;34.68;99498.84;105242;1251;61000;-61
2023/04/23 03:09:04;;;;;;;5.80;4.00;;;;;;;19.81;34.51;99500.91;104697;1251;73892;-62
2023/04/23 03:11:33;;;;;;;7.00;4.50;;;;;;;19.84;33.95;99503.72;104393;1251;70213;-61
2023/04/23 03:14:01;;;;;;;6.10;4.40;;;;;;;19.86;34.25;99504.98;104665;1254;72827;-66
2023/04/23 03:16:30;;;;;;;6.80;4.50;;;;;;;19.87;34.65;99508.05;104615;1261;60549;-63
2023/04/23 03:19:00;;;;;;;5.00;4.30;;;;;;;19.89;34.52;99514.70;104404;1251;60812;-62
2023/04/23 03:21:28;;;;;;;7.30;4.80;;;;;;;19.89;34.53;99516.27;104746;1260;72999;-61
2023/04/23 03:23:57;;;;;;;6.40;4.10;;;;;;;19.92;34.67;99518.74;104631;1254;68777;-61
2023/04/23 03:26:25;;;;;;;5.10;4.60;;;;;;;19.92;34.91;99521.38;104391;1253;71502;-61
2023/04/23 03:28:53;;;;;;;6.00;4.80;;;;;;;19.92;35.63;99519.27;104372;1257;60622;-61
2023/04/23 03:31:23;;;;;;;6.70;5.10;;;;;;;19.91;35.13;99523.61;104309;1252;60563;-61
2023/04/23 03:33:52;;;;;;;7.30;5.40;;;;;;;19.93;34.60;99523.80;104436;1255;73342;-61
2023/04/23 03:36:24;;;;;;;6.80;5.60;;;;;;;19.96;35.20;99529.56;104291;1256;68913;-61
2023/04/23 03:38:53;;;;;;;7.80;5.80;;;;;;;19.96;35.26;99528.30;104544;1252;72647;-61
2023/04/23 03:41:22;;;;;;;6.90;5.70;;;;;;;19.99;35.00;99532.19;104623;1250;60469;-61
2023/04/23 03:43:51;;;;;;;10.30;5.90;;;;;;;20.01;35.17;99531.08;104648;1250;60552;-61
2023/04/23 03:46:49;;;;;;;8.50;6.20;;;;;;;20.06;35.24;99533.53;104332;1263;73045;-61
2023/04/23 03:49:18;;;;;;;11.50;8.00;;;;;;;20.07;35.21;99534.38;105047;1253;69020;-61
2023/04/23 03:51:46;;;;;;;13.70;8.40;;;;;;;20.05;35.07;99535.73;105270;1254;71996;-62
2023/04/23 03:54:15;;;;;;;11.30;8.20;;;;;;;20.07;35.04;99537.36;104607;1251;60479;-63
2023/04/23 03:56:58;;;;;;;12.20;7.60;;;;;;;20.09;34.93;99542.19;104337;1263;61300;-61
2023/04/23 03:59:28;;;;;;;11.10;6.70;;;;;;;20.09;34.56;99543.25;104576;1260;73230;-61
2023/04/23 04:01:59;;;;;;;8.10;6.40;;;;;;;20.13;34.40;99543.14;104639;1251;69515;-60
2023/04/23 04:04:28;;;;;;;11.50;6.60;;;;;;;20.12;34.57;99546.36;104395;1254;72237;-61
2023/04/23 04:06:59;;;;;;;12.30;7.20;;;;;;;20.12;35.18;99548.14;104584;1254;60544;-62
2023/04/23 04:09:27;;;;;;;10.10;7.30;;;;;;;20.19;35.63;99555.44;104788;1254;60430;-61
2023/04/23 04:12:03;;;;;;;14.70;9.90;;;;;;;20.22;35.70;99555.17;104666;1254;72945;-62
2023/04/23 04:14:31;;;;;;;11.40;9.40;;;;;;;20.23;35.31;99554.53;104541;1251;68623;-61
2023/04/23 04:16:59;;;;;;;14.90;9.40;;;;;;;20.26;35.72;99555.16;104551;1272;72781;-63
2023/04/23 04:19:28;;;;;;;13.10;9.00;;;;;;;20.27;35.73;99553.50;104567;1254;60556;-61
2023/04/23 04:21:56;;;;;;;10.80;8.10;;;;;;;20.31;35.49;99555.48;104718;1263;61113;-62
2023/04/23 04:24:25;;;;;;;9.80;7.30;;;;;;;20.38;35.49;99555.92;104761;1254;73599;-61
2023/04/23 04:26:53;;;;;;;8.00;6.40;;;;;;;20.41;35.44;99553.92;104674;1251;68714;-61
2023/04/23 04:29:22;;;;;;;9.60;6.20;;;;;;;20.45;35.64;99557.67;104591;1263;72538;-61
2023/04/23 04:31:55;;;;;;;10.10;6.10;;;;;;;20.49;35.75;99560.69;104552;1261;60669;-62
2023/04/23 04:34:23;;;;;;;12.00;7.90;;;;;;;20.52;35.71;99565.96;104648;1249;62259;-61
2023/04/23 04:36:52;;;;;;;9.80;6.80;;;;;;;20.50;34.87;99564.50;104577;1254;72735;-61
2023/04/23 04:39:21;;;;;;;8.60;6.70;;;;;;;20.58;34.91;99564.04;104669;1254;68922;-62
2023/04/23 04:41:49;;;;;;;7.80;6.40;;;;;;;20.65;34.71;99566.69;104667;1250;72741;-61
2023/04/23 04:44:18;;;;;;;9.80;6.90;;;;;;;20.65;34.57;99569.29;104688;1258;60631;-65
2023/04/23 04:46:46;;;;;;;7.60;6.40;;;;;;;20.65;34.76;99571.08;104505;1257;60815;-60
2023/04/23 04:49:18;;;;;;;8.90;7.20;;;;;;;20.70;34.62;99574.29;104673;1251;74111;-61
2023/04/23 04:51:47;;;;;;;13.10;8.40;;;;;;;20.75;34.51;99576.34;104782;1251;69434;-66
2023/04/23 04:54:15;;;;;;;16.10;9.90;;;;;;;20.79;34.66;99575.97;104970;1254;71917;-66
2023/04/23 04:56:44;;;;;;;16.50;11.40;;;;;;;20.88;34.59;99577.88;104524;1254;60613;-65
2023/04/23 04:59:12;;;;;;;15.00;9.90;;;;;;;20.91;34.67;99576.70;104725;1254;60521;-68
2023/04/23 05:01:41;;;;;;;15.60;10.20;;;;;;;20.96;34.72;99578.55;104601;1254;74197;-69
2023/04/23 05:04:09;;;;;;;13.90;10.30;;;;;;;21.02;34.60;99579.85;104659;1249;68555;-66
2023/04/23 05:06:38;;;;;;;13.50;10.70;;;;;;;21.03;34.89;99583.17;104507;1251;71815;-67
2023/04/23 05:09:07;;;;;;;14.90;10.60;;;;;;;21.07;34.84;99585.13;104670;1250;60564;-68
2023/04/23 05:11:35;;;;;;;21.30;14.60;;;;;;;21.18;34.69;99587.73;104499;1263;60552;-68
2023/04/23 05:14:04;;;;;;;31.40;17.40;;;;;;;21.27;34.60;99589.40;104671;1266;74829;-67
2023/04/23 05:16:33;;;;;;;35.30;20.40;;;;;;;21.37;34.38;99591.42;104512;1254;69790;-66
2023/04/23 05:19:01;;;;;;;36.60;23.90;;;;;;;21.44;34.41;99595.48;104565;1267;74210;-67
2023/04/23 05:21:30;;;;;;;48.80;27.80;;;;;;;21.49;34.25;99601.39;104436;1254;60930;-69
2023/04/23 05:23:59;;;;;;;35.30;22.50;;;;;;;21.58;33.81;99600.80;104581;1254;61244;-64
2023/04/23 05:26:28;;;;;;;34.50;21.60;;;;;;;21.69;33.73;99601.48;104366;1256;74882;-63
2023/04/23 05:28:56;;;;;;;31.50;18.90;;;;;;;21.77;33.87;99604.97;104340;1256;70291;-66
2023/04/23 05:31:25;;;;;;;28.10;17.20;;;;;;;21.86;34.04;99605.94;104401;1256;71868;-66
2023/04/23 05:33:56;;;;;;;27.40;16.50;;;;;;;21.97;33.98;99605.17;104357;1256;62362;-69
2023/04/23 05:36:25;;;;;;;23.10;13.40;;;;;;;22.05;34.38;99603.48;104473;1252;60115;-69
2023/04/23 05:38:53;;;;;;;18.20;12.00;;;;;;;22.14;34.90;99603.74;104347;1252;74489;-71
2023/04/23 05:41:22;;;;;;;20.00;11.10;;;;;;;22.23;34.97;99607.11;104384;1263;69048;-67
2023/04/23 05:43:50;;;;;;;16.10;9.70;;;;;;;22.31;34.62;99607.09;104446;1257;72918;-69
2023/04/23 05:46:19;;;;;;;15.30;8.10;;;;;;;22.38;34.26;99611.38;104379;1256;60648;-68
2023/04/23 05:48:47;;;;;;;9.70;6.70;;;;;;;22.47;33.99;99612.36;104418;1257;60574;-71
2023/04/23 05:51:16;;;;;;;7.50;6.00;;;;;;;22.55;33.97;99611.41;104411;1256;73615;-65
2023/04/23 05:53:44;;;;;;;8.00;5.80;;;;;;;22.65;33.90;99611.95;104316;1259;69922;-64
2023/04/23 05:56:12;;;;;;;5.80;4.70;;;;;;;22.72;33.58;99612.20;104399;1267;72930;-68
2023/04/23 05:58:41;;;;;;;5.60;4.90;;;;;;;22.76;33.78;99616.59;104417;1269;61015;-65
2023/04/23 06:01:09;;;;;;;5.90;4.50;;;;;;;22.87;33.78;99617.92;104263;1275;60552;-63
2023/04/23 06:03:40;;;;;;;6.70;5.00;;;;;;;22.95;33.77;99619.99;104383;1266;73014;-65
2023/04/23 06:06:12;;;;;;;8.30;4.30;;;;;;;23.03;33.83;99622.17;104375;1254;68484;-64
2023/04/23 06:08:41;;;;;;;5.80;4.80;;;;;;;23.10;33.95;99623.43;104337;1251;73073;-65
2023/04/23 06:11:10;;;;;;;4.80;4.30;;;;;;;23.21;33.75;99626.73;104321;1267;60524;-65
2023/04/23 06:13:39;;;;;;;8.30;4.50;;;;;;;23.30;33.85;99626.37;104378;1251;60457;-63
2023/04/23 06:16:10;;;;;;;6.00;4.50;;;;;;;23.39;33.70;99627.13;104284;1252;73325;-66
2023/04/23 06:18:39;;;;;;;7.40;4.90;;;;;;;23.41;33.21;99627.63;104385;1251;69073;-66
2023/04/23 06:21:07;;;;;;;5.20;4.20;;;;;;;23.50;33.29;99630.34;104373;1257;71908;-62
2023/04/23 06:23:36;;;;;;;5.30;4.40;;;;;;;23.55;33.49;99628.91;104360;1251;60534;-62
2023/04/23 06:26:04;;;;;;;7.30;4.30;;;;;;;23.61;33.33;99629.41;104347;1263;60587;-63
2023/04/23 06:28:32;;;;;;;4.40;4.00;;;;;;;23.71;33.23;99630.80;104398;1257;74114;-62
2023/04/23 06:31:21;;;;;;;5.60;4.60;;;;;;;23.82;33.09;99632.08;104318;1251;71057;-62
2023/04/23 06:33:50;;;;;;;6.10;4.60;;;;;;;23.87;33.02;99629.80;104277;1272;73680;-66
2023/04/23 06:36:19;;;;;;;6.40;3.90;;;;;;;23.96;32.80;99632.17;104332;1263;60565;-66
2023/04/23 06:38:47;;;;;;;4.70;4.30;;;;;;;24.05;32.90;99631.75;104431;1253;60896;-65
2023/04/23 06:41:15;;;;;;;4.70;4.00;;;;;;;24.15;33.10;99635.77;104470;1257;73653;-64
2023/04/23 06:43:44;;;;;;;6.20;3.70;;;;;;;24.22;32.67;99631.38;104492;1254;69162;-65
2023/04/23 06:46:21;;;;;;;4.20;3.80;;;;;;;24.30;32.45;99632.16;104460;1255;71854;-63
2023/04/23 06:48:49;;;;;;;5.80;3.70;;;;;;;24.39;32.46;99628.30;104545;1252;60566;-63
2023/04/23 06:51:18;;;;;;;6.20;3.50;;;;;;;24.49;32.57;99631.49;104584;1251;60564;-63
2023/04/23 06:53:46;;;;;;;4.80;3.80;;;;;;;24.56;32.58;99631.53;104352;1252;73959;-62
2023/04/23 06:56:15;;;;;;;4.80;3.90;;;;;;;24.67;32.33;99628.63;104450;1263;70886;-64
2023/04/23 06:58:43;;;;;;;5.30;4.00;;;;;;;24.74;31.94;99629.34;104723;1251;72316;-64
2023/04/23 07:01:18;;;;;;;4.90;3.90;;;;;;;24.86;31.82;99630.67;104421;1257;60581;-64
2023/04/23 07:03:50;;;;;;;5.10;3.80;;;;;;;24.92;31.44;99632.33;104654;1251;60553;-63
2023/04/23 07:06:19;;;;;;;4.60;3.60;;;;;;;25.02;31.19;99631.50;104387;1263;73321;-63
2023/04/23 07:08:48;;;;;;;5.00;3.50;;;;;;;25.12;31.29;99632.43;104363;1257;70203;-63
2023/04/23 07:11:16;;;;;;;3.70;3.30;;;;;;;25.13;30.69;99630.77;104399;1260;74076;-64
2023/04/23 07:13:45;;;;;;;3.60;3.10;;;;;;;25.25;30.65;99632.86;104353;1267;60703;-64
2023/04/23 07:16:14;;;;;;;5.50;3.20;;;;;;;25.34;30.70;99631.04;104420;1251;60558;-65
2023/04/23 07:18:42;;;;;;;3.50;3.20;;;;;;;25.43;30.70;99633.86;104434;1256;74947;-64
2023/04/23 07:21:11;;;;;;;3.90;3.40;;;;;;;25.57;30.65;99632.54;105057;1254;68954;-64
2023/04/23 07:23:39;;;;;;;5.70;3.20;;;;;;;25.74;30.24;99639.16;104545;1256;72246;-65
2023/04/23 07:26:07;;;;;;;5.80;3.30;;;;;;;25.86;30.07;99632.05;105030;1251;61015;-61
2023/04/23 07:28:35;;;;;;;5.60;3.10;;;;;;;25.89;29.76;99635.84;105125;1253;60549;-64
2023/04/23 07:31:04;;;;;;;6.60;3.40;;;;;;;25.88;29.97;99637.58;104588;1251;73479;-64
2023/04/23 07:33:32;;;;;;;5.00;3.10;;;;;;;25.96;29.50;99634.75;104729;1251;68787;-65
2023/04/23 07:36:01;;;;;;;3.10;2.80;;;;;;;26.07;29.59;99637.92;105062;1253;72978;-63
2023/04/23 07:38:30;;;;;;;4.40;3.50;;;;;;;26.18;29.67;99636.88;105035;1253;60554;-63
2023/04/23 07:40:59;;;;;;;3.20;2.90;;;;;;;26.21;29.94;99635.23;104435;1251;60555;-63
2023/04/23 07:43:27;;;;;;;3.40;3.10;;;;;;;26.28;29.75;99634.77;104789;1250;73820;-62
2023/04/23 07:45:56;;;;;;;4.00;3.10;;;;;;;26.35;29.70;99636.13;104535;1254;68687;-65
2023/04/23 07:48:24;;;;;;;4.50;2.90;;;;;;;26.40;29.07;99639.54;104359;1269;73195;-64
2023/04/23 07:50:53;;;;;;;4.30;2.40;;;;;;;26.42;28.66;99634.44;105563;1254;60473;-62
2023/04/23 07:53:21;;;;;;;4.00;2.40;;;;;;;26.38;28.80;99640.11;104534;1267;61906;-62
2023/04/23 07:55:50;;;;;;;3.20;2.70;;;;;;;26.39;28.98;99638.48;104693;1251;74019;-62
2023/04/23 07:58:18;;;;;;;6.00;2.90;;;;;;;26.39;28.60;99639.96;104932;1254;68726;-62
2023/04/23 08:00:47;;;;;;;4.10;2.00;;;;;;;26.35;28.59;99639.13;104614;1257;72945;-62
2023/04/23 08:03:15;;;;;;;5.20;2.40;;;;;;;26.35;28.40;99641.24;104559;1270;60545;-62
2023/04/23 08:05:44;;;;;;;2.60;2.40;;;;;;;26.35;28.90;99639.66;104817;1254;61272;-62
2023/04/23 08:08:13;;;;;;;3.00;2.80;;;;;;;26.35;28.99;99640.80;104547;1254;72703;-62
2023/04/23 08:10:42;;;;;;;2.90;2.40;;;;;;;26.38;28.77;99637.08;104713;1251;69025;-62
2023/04/23 08:13:10;;;;;;;5.10;2.30;;;;;;;26.39;28.42;99636.90;104581;1263;71873;-64
2023/04/23 08:15:39;;;;;;;3.10;2.80;;;;;;;26.43;28.67;99633.64;105365;1251;61144;-63
2023/04/23 08:18:07;;;;;;;5.80;2.50;;;;;;;26.51;28.73;99632.60;104534;1251;60606;-62
2023/04/23 08:20:35;;;;;;;2.70;2.50;;;;;;;26.59;28.65;99630.23;104325;1255;74793;-63
2023/04/23 08:23:04;;;;;;;2.80;2.60;;;;;;;26.68;28.60;99630.65;104398;1265;69885;-62
2023/04/23 08:25:33;;;;;;;3.80;3.10;;;;;;;26.79;28.86;99629.63;108438;1251;71823;-63
2023/04/23 08:28:02;;;;;;;4.20;2.80;;;;;;;26.88;29.22;99629.18;107157;1255;60716;-63
2023/04/23 08:30:31;;;;;;;2.80;2.60;;;;;;;26.96;28.92;99630.14;104904;1257;60494;-62
2023/04/23 08:32:59;;;;;;;3.10;2.80;;;;;;;26.99;28.43;99625.08;105185;1251;73710;-63
2023/04/23 08:35:28;;;;;;;2.70;2.50;;;;;;;27.07;28.17;99626.20;104469;1273;69398;-62
2023/04/23 08:37:57;;;;;;;1.80;1.70;;;;;;;27.13;27.18;99626.09;105143;1251;73829;-63
2023/04/23 08:40:25;;;;;;;2.00;1.80;;;;;;;27.21;27.41;99623.60;104518;1256;60532;-62
2023/04/23 08:42:57;;;;;;;1.90;1.60;;;;;;;27.26;26.81;99627.31;104586;1251;60451;-63
2023/04/23 08:45:26;;;;;;;2.80;1.60;;;;;;;27.34;26.59;99624.26;104714;1256;75047;-62
2023/04/23 08:47:57;;;;;;;2.10;1.80;;;;;;;27.40;26.62;99622.91;104633;1267;69823;-66
2023/04/23 08:50:30;;;;;;;1.90;1.70;;;;;;;27.50;26.57;99620.18;104663;1254;73196;-66
2023/04/23 08:52:58;;;;;;;2.10;1.90;;;;;;;27.59;26.43;99618.77;104586;1251;60847;-64
2023/04/23 08:55:27;;;;;;;1.90;1.20;;;;;;;27.63;25.66;99619.36;104812;1256;60999;-63
2023/04/23 08:57:57;;;;;;;1.50;1.40;;;;;;;27.67;25.95;99615.60;104646;1257;73934;-64
2023/04/23 09:00:25;;;;;;;1.40;1.20;;;;;;;27.71;25.66;99612.06;105153;1257;68994;-64
2023/04/23 09:02:53;;;;;;;2.00;1.60;;;;;;;27.74;25.35;99606.35;104409;1255;72282;-65
2023/04/23 09:05:22;;;;;;;2.50;1.10;;;;;;;27.79;25.52;99604.39;104502;1260;60562;-64
2023/04/23 09:07:58;;;;;;;1.50;1.20;;;;;;;27.89;24.83;99604.23;105686;1251;61250;-64
2023/04/23 09:10:28;;;;;;;1.20;1.10;;;;;;;27.94;24.86;99603.59;104307;1251;74035;-64
2023/04/23 09:12:57;;;;;;;2.30;1.50;;;;;;;28.01;24.28;99594.95;104417;1251;68590;-63
2023/04/23 09:15:25;;;;;;;1.50;1.20;;;;;;;28.08;24.84;99598.36;104474;1251;72680;-63
2023/04/23 09:17:54;;;;;;;2.40;0.90;;;;;;;28.17;24.60;99596.16;104344;1266;60919;-62
2023/04/23 09:20:24;;;;;;;3.20;1.30;;;;;;;28.22;24.25;99593.89;104425;1270;60062;-69
2023/04/23 09:22:53;;;;;;;1.60;1.30;;;;;;;28.29;24.04;99592.20;104401;1263;74030;-63
2023/04/23 09:25:22;;;;;;;1.30;1.20;;;;;;;28.34;23.90;99586.80;104349;1252;70293;-64
2023/04/23 09:27:51;;;;;;;1.70;1.30;;;;;;;28.36;23.82;99587.11;104387;1269;72817;-63
2023/04/23 09:30:19;;;;;;;1.50;1.10;;;;;;;28.44;24.37;99590.45;104361;1267;60559;-63
2023/04/23 09:32:48;;;;;;;1.20;1.00;;;;;;;28.51;24.19;99585.85;104500;1256;60549;-66
2023/04/23 09:35:20;;;;;;;1.20;1.10;;;;;;;28.56;24.04;99589.06;104450;1260;74596;-62
2023/04/23 09:37:51;;;;;;;2.00;1.40;;;;;;;28.51;23.59;99589.05;104470;1256;70128;-64
2023/04/23 09:42:48;;;;;;;1.30;1.20;;;;;;;27.26;25.57;99588.48;101511;1294;601179;-63
2023/04/23 09:45:17;;;;;;;1.20;1.10;;;;;;;28.27;23.60;99581.98;103869;1275;59649;-63
2023/04/23 09:47:53;;;;;;;1.80;1.70;;;;;;;28.27;23.81;99582.95;103907;1268;60507;-63
2023/04/23 09:50:37;;;;;;;2.10;1.40;;;;;;;28.26;23.96;99576.73;103850;1266;71489;-64
2023/04/23 09:53:07;;;;;;;1.70;1.60;;;;;;;28.33;23.75;99572.88;103657;1266;68940;-63
2023/04/23 09:55:40;;;;;;;2.00;1.70;;;;;;;28.42;23.52;99577.20;103521;1266;209020;-62
2023/04/23 09:58:14;;;;;;;1.90;1.80;;;;;;;28.50;23.57;99576.02;103893;1262;60768;-65
2023/04/23 10:00:42;;;;;;;1.80;1.70;;;;;;;28.55;23.19;99575.27;103928;1266;59848;-64
2023/04/23 10:03:11;;;;;;;1.50;1.40;;;;;;;28.53;23.45;99577.35;104331;1254;72216;-62
2023/04/23 10:05:43;;;;;;;1.90;1.70;;;;;;;28.51;22.98;99576.33;104359;1269;71169;-66
2023/04/23 10:08:29;;;;;;;1.80;1.70;;;;;;;28.45;22.90;99577.33;104359;1256;72075;-66
2023/04/23 10:10:58;;;;;;;3.70;1.60;;;;;;;28.35;23.04;99573.64;104269;1254;60745;-65
2023/04/23 10:13:46;;;;;;;2.60;1.70;;;;;;;28.29;22.93;99570.76;104304;1255;59644;-64
2023/04/23 10:16:14;;;;;;;2.30;2.00;;;;;;;28.24;23.26;99568.13;104452;1257;72076;-63
2023/04/23 10:18:55;;;;;;;10.70;9.60;;;;;;;28.31;23.14;99569.11;104463;1254;68909;-65
2023/04/23 10:21:27;;;;;;;7.60;5.00;;;;;;;28.36;23.20;99567.73;104394;1269;71482;-66
2023/04/23 10:24:03;;;;;;;5.90;3.60;;;;;;;28.50;23.16;99571.02;104385;1253;60096;-65
2023/04/23 10:26:31;;;;;;;3.00;2.80;;;;;;;28.51;22.84;99569.98;104405;1256;60344;-66
2023/04/23 10:29:00;;;;;;;3.70;2.30;;;;;;;28.50;22.93;99568.24;104491;1251;72845;-67
2023/04/23 10:31:28;;;;;;;5.80;4.80;;;;;;;28.53;23.62;99564.36;104411;1256;70174;-66
2023/04/23 10:33:57;;;;;;;4.30;2.90;;;;;;;28.63;23.08;99562.29;104444;1264;72997;-65
2023/04/23 10:36:27;;;;;;;25.10;19.00;;;;;;;28.74;22.85;99563.98;104326;1253;60397;-65
2023/04/23 10:38:59;;;;;;;108.70;72.30;;;;;;;28.89;22.74;99564.58;104462;1252;60147;-68
2023/04/23 10:41:35;;;;;;;39.50;29.50;;;;;;;28.91;22.76;99558.54;104466;1251;73424;-65
2023/04/23 10:44:04;;;;;;;22.90;16.20;;;;;;;28.97;22.52;99559.95;104396;1274;69139;-66
2023/04/23 10:46:34;;;;;;;10.40;8.40;;;;;;;29.08;22.66;99557.88;104690;1265;72755;-64
2023/04/23 10:49:09;;;;;;;6.10;5.10;;;;;;;29.23;22.73;99560.79;104487;1261;59878;-65
2023/04/23 10:51:38;;;;;;;7.40;4.30;;;;;;;29.39;22.54;99561.23;104641;1250;60046;-65
2023/04/23 10:54:12;;;;;;;3.60;2.90;;;;;;;29.54;22.05;99554.62;104379;1255;72424;-67
2023/04/23 10:56:41;;;;;;;3.00;2.10;;;;;;;29.66;21.88;99553.54;104302;1259;70326;-65
2023/04/23 10:59:19;;;;;;;3.70;2.40;;;;;;;29.78;21.75;99555.65;104598;1255;71582;-65
2023/04/23 11:01:51;;;;;;;2.00;1.70;;;;;;;29.90;21.55;99559.98;104352;1250;59676;-64
2023/04/23 11:04:23;;;;;;;3.20;1.70;;;;;;;29.92;21.43;99556.80;104317;1250;59848;-64
2023/04/23 11:06:56;;;;;;;1.80;1.60;;;;;;;29.89;21.21;99556.94;104444;1256;74880;-63
2023/04/23 11:09:34;;;;;;;3.60;1.50;;;;;;;29.86;21.41;99554.21;104615;1252;69268;-63
2023/04/23 11:12:05;;;;;;;1.80;1.70;;;;;;;29.85;21.53;99551.92;104641;1254;72865;-62
2023/04/23 11:14:47;;;;;;;2.20;1.80;;;;;;;29.89;21.37;99554.30;104514;1250;60440;-65
2023/04/23 11:17:36;;;;;;;2.00;1.50;;;;;;;29.96;20.73;99556.26;104484;1251;59725;-65
2023/04/23 11:20:09;;;;;;;2.40;1.30;;;;;;;29.99;20.48;99556.27;104412;1255;73293;-65
2023/04/23 11:22:39;;;;;;;1.60;1.50;;;;;;;30.01;21.07;99553.55;104505;1256;68700;-66
2023/04/23 11:25:09;;;;;;;2.10;1.20;;;;;;;29.99;20.57;99555.15;104464;1266;71485;-63
2023/04/23 11:27:44;;;;;;;1.80;1.30;;;;;;;29.99;19.63;99551.58;104356;1255;59689;-64
2023/04/23 11:30:13;;;;;;;1.50;1.40;;;;;;;30.01;19.91;99550.79;104403;1259;59637;-64
2023/04/23 11:32:49;;;;;;;1.50;1.30;;;;;;;30.07;19.99;99547.23;104324;1255;73386;-65
2023/04/23 11:35:19;;;;;;;3.00;1.40;;;;;;;30.13;19.87;99544.73;104318;1256;68980;-64
2023/04/23 11:37:48;;;;;;;3.20;1.50;;;;;;;30.12;20.39;99542.27;104441;1266;73559;-62